createdAt,value
2018-04-16T00:00:54.966Z,11.50
2018-04-16T00:03:23.236Z,11.50
2018-04-16T00:05:50.774Z,11.40
2018-04-16T00:08:18.312Z,11.50
2018-04-16T00:10:45.877Z,11.40
2018-04-16T00:13:13.416Z,11.40
2018-04-16T00:15:40.968Z,11.40
2018-04-16T00:18:08.465Z,11.30
2018-04-16T00:20:36.002Z,11.20
2018-04-16T00:23:04.312Z,11.10
2018-04-16T00:25:31.839Z,11.10
2018-04-16T00:27:59.384Z,11.10
2018-04-16T00:30:27.708Z,10.90
2018-04-16T00:33:00.772Z,10.90
2018-04-16T00:35:33.972Z,10.90
2018-04-16T00:38:07.931Z,10.70
2018-04-16T00:40:41.025Z,10.70
2018-04-16T00:43:14.159Z,10.70
2018-04-16T00:45:47.231Z,10.60
2018-04-16T00:48:20.388Z,10.60
2018-04-16T00:50:53.630Z,10.50
2018-04-16T00:53:26.769Z,10.50
2018-04-16T00:56:00.112Z,10.40
2018-04-16T00:58:33.348Z,10.40
2018-04-16T01:01:06.381Z,10.30
2018-04-16T01:03:39.635Z,10.20
2018-04-16T01:06:13.574Z,10.10
2018-04-16T01:08:46.883Z,10.00
2018-04-16T01:14:19.879Z,9.90
2018-04-16T01:16:53.180Z,9.90
2018-04-16T01:19:26.289Z,9.80
2018-04-16T01:21:59.444Z,9.80
2018-04-16T01:24:32.523Z,9.70
2018-04-16T01:27:06.384Z,9.70
2018-04-16T01:29:39.602Z,9.70
2018-04-16T01:32:12.727Z,9.70
2018-04-16T01:34:46.005Z,9.70
2018-04-16T01:37:19.252Z,9.70
2018-04-16T01:39:52.494Z,9.70
2018-04-16T01:42:25.730Z,9.70
2018-04-16T01:44:58.923Z,9.60
2018-04-16T01:47:32.069Z,9.60
2018-04-16T01:50:05.242Z,9.60
2018-04-16T01:52:38.630Z,9.70
2018-04-16T01:55:11.812Z,9.80
2018-04-16T01:57:45.002Z,9.80
2018-04-16T02:00:18.919Z,9.60
2018-04-16T02:02:53.122Z,9.50
2018-04-16T02:05:26.266Z,9.50
2018-04-16T02:07:59.503Z,9.40
2018-04-16T02:10:32.755Z,9.40
2018-04-16T02:13:05.910Z,9.50
2018-04-16T02:15:39.028Z,9.60
2018-04-16T02:18:12.260Z,9.50
2018-04-16T02:20:45.437Z,9.50
2018-04-16T02:23:18.577Z,9.30
2018-04-16T02:25:52.557Z,9.10
2018-04-16T02:28:26.001Z,9.10
2018-04-16T02:30:59.257Z,9.00
2018-04-16T02:33:32.437Z,9.00
2018-04-16T02:36:06.327Z,9.00
2018-04-16T02:38:39.529Z,9.00
2018-04-16T02:41:12.673Z,8.90
2018-04-16T02:43:45.794Z,9.00
2018-04-16T02:46:18.927Z,9.00
2018-04-16T02:48:52.140Z,8.90
2018-04-16T02:51:25.365Z,8.90
2018-04-16T02:53:58.553Z,8.90
2018-04-16T02:56:31.828Z,9.00
2018-04-16T02:59:04.984Z,9.10
2018-04-16T03:01:38.938Z,9.50
2018-04-16T03:04:12.139Z,9.50
2018-04-16T03:06:45.437Z,9.70
2018-04-16T03:09:18.665Z,9.90
2018-04-16T03:11:51.860Z,10.00
2018-04-16T03:14:25.076Z,10.20
2018-04-16T03:19:58.193Z,10.50
2018-04-16T03:22:42.521Z,10.60
2018-04-16T03:28:16.409Z,10.60
2018-04-16T03:30:50.513Z,10.80
2018-04-16T03:33:24.483Z,10.80
2018-04-16T03:35:57.625Z,10.80
2018-04-16T03:38:30.739Z,10.90
2018-04-16T03:44:07.731Z,11.00
2018-04-16T03:46:40.860Z,11.00
2018-04-16T03:49:13.994Z,11.10
2018-04-16T03:51:43.111Z,11.30
2018-04-16T03:54:11.418Z,11.40
2018-04-16T03:56:38.984Z,11.40
2018-04-16T03:59:06.501Z,11.40
2018-04-16T04:01:34.109Z,11.50
2018-04-16T04:04:01.633Z,11.50
2018-04-16T04:06:29.165Z,11.50
2018-04-16T04:08:56.674Z,11.50
2018-04-16T04:11:24.231Z,11.50
2018-04-16T04:13:51.786Z,11.50
2018-04-16T04:16:19.321Z,11.50
2018-04-16T04:18:46.836Z,11.60
2018-04-16T04:21:14.360Z,11.60
2018-04-16T04:23:55.189Z,11.60
2018-04-16T04:26:34.573Z,11.60
2018-04-16T04:29:14.057Z,11.60
2018-04-16T04:31:42.398Z,11.60
2018-04-16T04:34:10.054Z,11.60
2018-04-16T04:36:37.553Z,11.60
2018-04-16T04:39:05.081Z,11.60
2018-04-16T04:41:32.656Z,11.60
2018-04-16T04:44:00.184Z,11.50
2018-04-16T04:46:27.784Z,11.50
2018-04-16T04:48:56.172Z,11.40
2018-04-16T04:51:24.466Z,11.40
2018-04-16T04:53:52.829Z,11.30
2018-04-16T04:56:20.383Z,11.30
2018-04-16T04:58:48.721Z,11.40
2018-04-16T05:01:16.992Z,11.50
2018-04-16T05:03:44.906Z,11.50
2018-04-16T05:06:12.429Z,11.60
2018-04-16T05:08:39.967Z,11.70
2018-04-16T05:11:07.492Z,11.70
2018-04-16T05:13:35.785Z,11.90
2018-04-16T05:16:04.057Z,12.00
2018-04-16T05:18:31.670Z,12.00
2018-04-16T05:20:59.173Z,12.00
2018-04-16T05:23:26.699Z,12.10
2018-04-16T05:28:29.621Z,12.40
2018-04-16T05:30:57.933Z,12.50
2018-04-16T05:33:25.477Z,12.50
2018-04-16T05:35:53.774Z,12.80
2018-04-16T05:38:22.096Z,13.00
2018-04-16T05:40:49.603Z,12.90
2018-04-16T05:43:17.121Z,13.10
2018-04-16T05:45:44.669Z,13.20
2018-04-16T05:48:12.201Z,13.30
2018-04-16T05:50:39.711Z,13.50
2018-04-16T05:53:08.005Z,14.50
2018-04-16T05:55:36.296Z,14.60
2018-04-16T05:58:04.615Z,14.70
2018-04-16T06:00:32.133Z,14.70
2018-04-16T06:02:59.636Z,14.90
2018-04-16T06:05:27.960Z,14.80
2018-04-16T06:07:55.448Z,14.80
2018-04-16T06:10:23.090Z,14.90
2018-04-16T06:12:50.688Z,14.90
2018-04-16T06:15:18.219Z,15.00
2018-04-16T06:17:45.724Z,14.90
2018-04-16T06:20:13.284Z,15.00
2018-04-16T06:22:40.797Z,14.90
2018-04-16T06:25:09.170Z,15.60
2018-04-16T06:27:36.687Z,15.70
2018-04-16T06:30:05.026Z,15.70
2018-04-16T06:32:32.532Z,15.70
2018-04-16T06:35:00.060Z,16.20
2018-04-16T06:37:27.596Z,16.70
2018-04-16T06:39:55.217Z,17.10
2018-04-16T06:42:22.774Z,18.20
2018-04-16T06:44:50.289Z,19.20
2018-04-16T06:47:17.872Z,21.40
2018-04-16T06:49:46.250Z,22.80
2018-04-16T06:52:13.748Z,22.80
2018-04-16T06:54:42.033Z,23.30
2018-04-16T06:57:09.921Z,23.30
2018-04-16T06:59:37.456Z,23.90
2018-04-16T07:02:04.984Z,23.30
2018-04-16T07:04:32.613Z,23.80
2018-04-16T07:07:00.889Z,22.20
2018-04-16T07:09:28.476Z,22.10
2018-04-16T07:11:57.803Z,23.60
2018-04-16T07:14:26.321Z,25.60
2018-04-16T07:16:54.093Z,25.50
2018-04-16T07:19:21.691Z,25.10
2018-04-16T07:21:49.260Z,23.50
2018-04-16T07:24:16.863Z,22.80
2018-04-16T07:26:44.647Z,23.00
2018-04-16T07:29:12.203Z,23.60
2018-04-16T07:31:39.989Z,22.50
2018-04-16T07:34:07.516Z,22.00
2018-04-16T07:36:35.156Z,20.70
2018-04-16T07:39:03.466Z,20.40
2018-04-16T07:41:31.044Z,20.30
2018-04-16T07:43:58.540Z,20.50
2018-04-16T07:46:26.077Z,20.30
2018-04-16T07:48:53.580Z,19.80
2018-04-16T07:51:21.106Z,20.20
2018-04-16T07:53:49.422Z,21.00
2018-04-16T07:56:17.027Z,20.90
2018-04-16T07:58:44.965Z,21.30
2018-04-16T08:01:12.529Z,21.60
2018-04-16T08:03:40.827Z,22.00
2018-04-16T08:06:08.347Z,22.00
2018-04-16T08:08:36.131Z,22.50
2018-04-16T08:11:03.671Z,22.70
2018-04-16T08:13:31.422Z,22.40
2018-04-16T08:15:59.021Z,22.60
2018-04-16T08:18:26.632Z,23.20
2018-04-16T08:20:54.397Z,23.50
2018-04-16T08:23:22.883Z,24.60
2018-04-16T08:25:50.492Z,25.90
2018-04-16T08:28:17.998Z,26.00
2018-04-16T08:30:45.553Z,27.00
2018-04-16T08:33:14.670Z,29.40
2018-04-16T08:35:42.172Z,29.20
2018-04-16T08:38:09.752Z,28.40
2018-04-16T08:40:37.306Z,27.30
2018-04-16T08:43:04.954Z,26.60
2018-04-16T08:45:32.474Z,26.80
2018-04-16T08:48:00.013Z,27.40
2018-04-16T08:50:27.569Z,27.80
2018-04-16T08:52:55.083Z,27.20
2018-04-16T08:55:22.899Z,26.60
2018-04-16T08:57:51.496Z,27.60
2018-04-16T09:00:19.109Z,27.30
2018-04-16T09:02:46.644Z,26.50
2018-04-16T09:05:14.377Z,25.80
2018-04-16T09:07:41.994Z,25.40
2018-04-16T09:10:11.217Z,26.70
2018-04-16T09:12:40.738Z,28.00
2018-04-16T09:15:09.000Z,26.70
2018-04-16T09:17:36.816Z,26.70
2018-04-16T09:20:04.360Z,24.70
2018-04-16T09:22:32.038Z,24.10
2018-04-16T09:24:59.592Z,24.50
2018-04-16T09:27:27.101Z,26.30
2018-04-16T09:29:55.401Z,25.60
2018-04-16T09:32:22.919Z,25.50
2018-04-16T09:34:51.310Z,25.10
2018-04-16T09:37:18.844Z,23.90
2018-04-16T09:39:46.508Z,22.90
2018-04-16T09:42:14.201Z,22.10
2018-04-16T09:44:41.816Z,21.60
2018-04-16T09:47:09.355Z,21.40
2018-04-16T09:49:38.634Z,21.90
2018-04-16T09:52:06.937Z,23.60
2018-04-16T09:54:34.435Z,23.50
2018-04-16T09:57:01.967Z,23.50
2018-04-16T09:59:30.253Z,24.10
2018-04-16T10:01:58.664Z,23.60
2018-04-16T10:04:26.228Z,23.60
2018-04-16T10:06:53.764Z,23.40
2018-04-16T10:09:21.281Z,22.70
2018-04-16T10:11:49.686Z,22.40
2018-04-16T10:14:17.235Z,22.50
2018-04-16T10:16:44.756Z,22.20
2018-04-16T10:19:12.305Z,22.20
2018-04-16T10:21:39.891Z,22.30
2018-04-16T10:24:07.415Z,22.30
2018-04-16T10:26:35.715Z,22.40
2018-04-16T10:29:03.256Z,22.40
2018-04-16T10:31:30.900Z,22.80
2018-04-16T10:33:58.393Z,22.50
2018-04-16T10:36:25.943Z,22.30
2018-04-16T10:38:53.451Z,21.40
2018-04-16T10:41:20.973Z,21.60
2018-04-16T10:43:48.499Z,21.90
2018-04-16T10:46:15.998Z,21.90
2018-04-16T10:48:43.518Z,21.40
2018-04-16T10:51:12.539Z,20.60
2018-04-16T10:53:40.672Z,20.60
2018-04-16T10:56:08.183Z,20.60
2018-04-16T10:58:35.708Z,20.70
2018-04-16T11:01:03.220Z,21.30
2018-04-16T11:03:30.769Z,21.00
2018-04-16T11:05:58.368Z,21.10
2018-04-16T11:08:25.964Z,21.00
2018-04-16T11:10:54.905Z,20.80
2018-04-16T11:13:22.437Z,20.80
2018-04-16T11:15:50.046Z,20.90
2018-04-16T11:18:18.544Z,20.90
2018-04-16T11:20:46.088Z,21.00
2018-04-16T11:23:14.376Z,21.70
2018-04-16T11:25:42.661Z,21.90
2018-04-16T11:28:10.341Z,21.90
2018-04-16T11:30:38.628Z,21.40
2018-04-16T11:33:07.522Z,20.90
2018-04-16T11:35:35.913Z,20.70
2018-04-16T11:38:03.489Z,20.60
2018-04-16T11:40:31.025Z,21.00
2018-04-16T11:42:58.552Z,20.70
2018-04-16T11:45:27.030Z,20.30
2018-04-16T11:47:56.652Z,19.90
2018-04-16T11:50:24.949Z,20.10
2018-04-16T11:52:53.293Z,20.10
2018-04-16T11:55:21.235Z,20.00
2018-04-16T11:57:48.735Z,19.90
2018-04-16T12:00:16.323Z,20.00
2018-04-16T12:02:43.912Z,19.80
2018-04-16T12:05:11.565Z,19.70
2018-04-16T12:07:39.073Z,19.90
2018-04-16T12:10:07.431Z,20.40
2018-04-16T12:12:35.078Z,20.40
2018-04-16T12:15:02.609Z,20.70
2018-04-16T12:17:30.868Z,20.80
2018-04-16T12:19:58.402Z,20.80
2018-04-16T12:22:25.905Z,20.60
2018-04-16T12:24:53.602Z,20.60
2018-04-16T12:27:21.114Z,21.00
2018-04-16T12:29:48.819Z,21.20
2018-04-16T12:32:16.343Z,21.10
2018-04-16T12:34:44.660Z,20.20
2018-04-16T12:37:15.230Z,20.20
2018-04-16T12:39:42.765Z,20.10
2018-04-16T12:42:10.288Z,20.40
2018-04-16T12:44:37.961Z,20.20
2018-04-16T12:47:05.467Z,20.50
2018-04-16T12:49:33.829Z,21.50
2018-04-16T12:52:01.338Z,21.50
2018-04-16T12:54:29.017Z,21.80
2018-04-16T12:56:56.552Z,22.30
2018-04-16T12:59:24.064Z,22.70
2018-04-16T13:01:51.591Z,22.20
2018-04-16T13:04:19.186Z,22.60
2018-04-16T13:06:47.501Z,22.10
2018-04-16T13:09:15.169Z,22.10
2018-04-16T13:11:45.757Z,21.80
2018-04-16T13:14:24.785Z,21.70
2018-04-16T13:16:52.300Z,21.50
2018-04-16T13:19:20.010Z,21.50
2018-04-16T13:21:59.968Z,21.30
2018-04-16T13:24:40.381Z,21.20
2018-04-16T13:27:09.903Z,20.10
2018-04-16T13:29:37.511Z,20.10
2018-04-16T13:32:05.943Z,20.00
2018-04-16T13:34:33.472Z,19.90
2018-04-16T13:37:01.769Z,20.40
2018-04-16T13:39:30.093Z,20.60
2018-04-16T13:41:57.692Z,20.60
2018-04-16T13:44:25.318Z,20.80
2018-04-16T13:46:52.993Z,21.00
2018-04-16T13:49:20.827Z,21.00
2018-04-16T13:51:48.413Z,20.70
2018-04-16T13:54:17.123Z,20.90
2018-04-16T13:56:44.811Z,21.30
2018-04-16T13:59:13.116Z,21.60
2018-04-16T14:01:52.911Z,21.60
2018-04-16T14:04:20.509Z,21.80
2018-04-16T14:06:49.118Z,22.00
2018-04-16T14:09:18.439Z,22.20
2018-04-16T14:11:46.992Z,22.40
2018-04-16T14:14:14.547Z,22.30
2018-04-16T14:16:42.084Z,22.30
2018-04-16T14:19:10.484Z,22.10
2018-04-16T14:21:38.042Z,22.10
2018-04-16T14:24:06.388Z,22.10
2018-04-16T14:26:33.913Z,22.10
2018-04-16T14:29:01.480Z,21.90
2018-04-16T14:31:29.825Z,21.00
2018-04-16T14:33:57.369Z,20.90
2018-04-16T14:36:24.884Z,21.10
2018-04-16T14:38:54.662Z,21.10
2018-04-16T14:41:22.200Z,21.00
2018-04-16T14:43:49.719Z,21.00
2018-04-16T14:46:17.364Z,20.80
2018-04-16T14:48:44.962Z,20.70
2018-04-16T14:51:12.485Z,20.70
2018-04-16T14:53:40.088Z,20.50
2018-04-16T14:56:07.667Z,20.20
2018-04-16T14:58:35.247Z,20.00
2018-04-16T15:01:02.799Z,19.80
2018-04-16T15:03:30.592Z,19.80
2018-04-16T15:05:58.136Z,19.50
2018-04-16T15:08:26.413Z,19.30
2018-04-16T15:10:54.808Z,19.00
2018-04-16T15:13:23.136Z,19.00
2018-04-16T15:15:50.672Z,19.00
2018-04-16T15:18:18.973Z,19.20
2018-04-16T15:20:47.402Z,19.20
2018-04-16T15:23:14.938Z,19.20
2018-04-16T15:25:43.313Z,19.10
2018-04-16T15:28:10.835Z,19.10
2018-04-16T15:30:38.392Z,19.10
2018-04-16T15:33:05.982Z,19.40
2018-04-16T15:35:33.512Z,19.50
2018-04-16T15:38:01.785Z,19.50
2018-04-16T15:40:29.335Z,19.50
2018-04-16T15:42:56.881Z,19.30
2018-04-16T15:45:24.431Z,19.10
2018-04-16T15:47:51.968Z,18.80
2018-04-16T15:50:19.568Z,18.50
2018-04-16T15:52:47.150Z,18.20
2018-04-16T15:55:14.720Z,18.10
2018-04-16T15:57:42.264Z,18.20
2018-04-16T16:00:09.807Z,18.50
2018-04-16T16:02:37.367Z,19.10
2018-04-16T16:05:05.012Z,19.40
2018-04-16T16:07:32.653Z,19.40
2018-04-16T16:10:00.468Z,19.40
2018-04-16T16:12:27.988Z,19.10
2018-04-16T16:14:55.506Z,18.90
2018-04-16T16:17:23.033Z,19.10
2018-04-16T16:19:50.749Z,19.00
2018-04-16T16:22:18.285Z,19.00
2018-04-16T16:24:46.154Z,19.10
2018-04-16T16:27:13.680Z,19.20
2018-04-16T16:29:41.183Z,19.30
2018-04-16T16:32:08.696Z,19.40
2018-04-16T16:34:38.020Z,19.00
2018-04-16T16:37:06.313Z,18.70
2018-04-16T16:39:33.835Z,18.70
2018-04-16T16:42:01.352Z,18.60
2018-04-16T16:44:29.632Z,18.30
2018-04-16T16:46:57.925Z,18.10
2018-04-16T16:49:26.193Z,18.00
2018-04-16T16:51:53.724Z,18.00
2018-04-16T16:54:21.246Z,18.10
2018-04-16T16:56:49.535Z,18.00
2018-04-16T16:59:17.815Z,18.00
2018-04-16T17:01:45.336Z,18.00
2018-04-16T17:04:12.839Z,18.10
2018-04-16T17:06:40.373Z,18.10
2018-04-16T17:09:07.929Z,18.20
2018-04-16T17:11:35.537Z,18.20
2018-04-16T17:14:03.044Z,18.00
2018-04-16T17:16:31.342Z,17.70
2018-04-16T17:18:59.644Z,17.60
2018-04-16T17:21:27.958Z,17.40
2018-04-16T17:23:55.507Z,17.40
2018-04-16T17:26:23.810Z,17.20
2018-04-16T17:28:51.304Z,17.10
2018-04-16T17:31:18.850Z,17.00
2018-04-16T17:33:46.402Z,16.80
2018-04-16T17:36:14.692Z,16.50
2018-04-16T17:38:42.971Z,16.40
2018-04-16T17:41:10.495Z,16.40
2018-04-16T17:43:38.018Z,16.30
2018-04-16T17:46:05.533Z,16.20
2018-04-16T17:48:33.067Z,16.10
2018-04-16T17:51:01.389Z,15.90
2018-04-16T17:53:28.895Z,15.80
2018-04-16T17:55:56.402Z,15.70
2018-04-16T17:58:24.689Z,15.50
2018-04-16T18:00:52.956Z,15.40
2018-04-16T18:03:20.472Z,15.30
2018-04-16T18:05:47.972Z,15.30
2018-04-16T18:08:15.492Z,15.10
2018-04-16T18:10:43.773Z,14.80
2018-04-16T18:13:11.292Z,14.80
2018-04-16T18:15:38.792Z,14.70
2018-04-16T18:18:06.323Z,14.50
2018-04-16T18:20:33.829Z,14.40
2018-04-16T18:23:01.359Z,14.30
2018-04-16T18:25:28.860Z,14.20
2018-04-16T18:27:56.404Z,14.10
2018-04-16T18:30:24.066Z,14.00
2018-04-16T18:32:52.357Z,13.70
2018-04-16T18:35:19.899Z,13.70
2018-04-16T18:37:48.215Z,13.50
2018-04-16T18:40:16.516Z,13.40
2018-04-16T18:42:44.042Z,13.40
2018-04-16T18:45:12.422Z,13.10
2018-04-16T18:47:39.940Z,13.10
2018-04-16T18:50:08.259Z,12.90
2018-04-16T18:52:35.774Z,12.80
2018-04-16T18:55:03.292Z,12.70
2018-04-16T18:57:30.802Z,12.60
2018-04-16T18:59:59.080Z,12.40
2018-04-16T19:02:26.585Z,12.40
2018-04-16T19:04:54.106Z,12.30
2018-04-16T19:07:21.612Z,12.30
2018-04-16T19:09:49.125Z,12.30
2018-04-16T19:12:16.649Z,12.20
2018-04-16T19:14:44.170Z,12.10
2018-04-16T19:17:11.677Z,12.00
2018-04-16T19:19:39.212Z,11.80
2018-04-16T19:22:06.716Z,11.70
2018-04-16T19:24:34.255Z,11.60
2018-04-16T19:27:07.352Z,11.60
2018-04-16T19:29:34.886Z,11.60
2018-04-16T19:32:02.392Z,11.50
2018-04-16T19:34:35.493Z,11.40
2018-04-16T19:37:02.987Z,11.30
2018-04-16T19:39:30.511Z,11.20
2018-04-16T19:42:03.793Z,11.20
2018-04-16T19:44:31.325Z,11.10
2018-04-16T19:46:58.841Z,11.00
2018-04-16T19:49:32.066Z,11.10
2018-04-16T19:51:59.653Z,11.00
2018-04-16T19:54:27.945Z,10.90
2018-04-16T19:57:14.940Z,10.90
2018-04-16T19:59:42.458Z,10.90
2018-04-16T20:02:15.541Z,10.80
2018-04-16T20:04:43.834Z,10.70
2018-04-16T20:07:12.100Z,10.70
2018-04-16T20:09:39.624Z,10.60
2018-04-16T20:12:07.121Z,10.60
2018-04-16T20:14:34.628Z,10.50
2018-04-16T20:17:02.955Z,10.40
2018-04-16T20:19:30.451Z,10.40
2018-04-16T20:21:57.978Z,10.40
2018-04-16T20:24:26.406Z,10.40
2018-04-16T20:26:53.929Z,10.40
2018-04-16T20:29:22.215Z,10.40
2018-04-16T20:31:50.500Z,10.30
2018-04-16T20:34:18.765Z,10.20
2018-04-16T20:36:46.281Z,10.10
2018-04-16T20:39:13.789Z,10.10
2018-04-16T20:41:41.313Z,10.10
2018-04-16T20:44:09.577Z,9.90
2018-04-16T20:46:37.093Z,9.90
2018-04-16T20:49:04.599Z,9.90
2018-04-16T20:51:32.113Z,9.80
2018-04-16T20:54:00.373Z,9.80
2018-04-16T20:56:27.884Z,9.70
2018-04-16T20:58:55.380Z,9.70
2018-04-16T21:01:22.892Z,9.70
2018-04-16T21:03:50.401Z,9.70
2018-04-16T21:06:17.922Z,9.60
2018-04-16T21:08:45.420Z,9.70
2018-04-16T21:11:13.708Z,9.60
2018-04-16T21:13:41.981Z,9.60
2018-04-16T21:16:09.906Z,9.60
2018-04-16T21:18:37.413Z,9.50
2018-04-16T21:21:04.929Z,9.50
2018-04-16T21:23:32.433Z,9.40
2018-04-16T21:25:59.962Z,9.40
2018-04-16T21:28:27.448Z,9.40
2018-04-16T21:30:54.960Z,9.30
2018-04-16T21:33:22.462Z,9.20
2018-04-16T21:35:49.987Z,9.20
2018-04-16T21:38:17.486Z,9.20
2018-04-16T21:40:45.009Z,9.10
2018-04-16T21:43:12.525Z,9.10
2018-04-16T21:45:40.059Z,9.10
2018-04-16T21:48:07.568Z,9.00
2018-04-16T21:50:35.091Z,9.00
2018-04-16T21:53:02.604Z,9.00
2018-04-16T21:55:30.364Z,8.90
2018-04-16T21:57:57.911Z,8.90
2018-04-16T22:00:25.416Z,8.90
2018-04-16T22:02:52.940Z,8.90
2018-04-16T22:05:21.216Z,8.80
2018-04-16T22:07:49.497Z,8.70
2018-04-16T22:10:16.997Z,8.70
2018-04-16T22:12:44.517Z,8.70
2018-04-16T22:15:12.012Z,8.70
2018-04-16T22:17:40.303Z,8.60
2018-04-16T22:20:07.812Z,8.50
2018-04-16T22:22:35.329Z,8.50
2018-04-16T22:25:02.844Z,8.40
2018-04-16T22:27:30.380Z,8.40
2018-04-16T22:29:57.887Z,8.40
2018-04-16T22:32:25.404Z,8.40
2018-04-16T22:34:52.920Z,8.40
2018-04-16T22:37:21.215Z,8.40
2018-04-16T22:39:48.727Z,8.40
2018-04-16T22:42:16.255Z,8.30
2018-04-16T22:44:43.757Z,8.40
2018-04-16T22:47:11.309Z,8.30
2018-04-16T22:49:38.804Z,8.30
2018-04-16T22:52:06.329Z,8.30
2018-04-16T22:54:33.839Z,8.20
2018-04-16T22:57:01.358Z,8.10
2018-04-16T22:59:29.645Z,8.10
2018-04-16T23:01:57.933Z,8.00
2018-04-16T23:04:25.451Z,8.00
2018-04-16T23:06:52.972Z,8.00
2018-04-16T23:09:20.471Z,8.00
2018-04-16T23:11:48.009Z,7.90
2018-04-16T23:14:15.525Z,7.80
2018-04-16T23:16:43.026Z,7.80
2018-04-16T23:19:10.548Z,7.80
2018-04-16T23:21:38.812Z,7.70
2018-04-16T23:24:06.328Z,7.70
2018-04-16T23:26:33.843Z,7.80
2018-04-16T23:29:01.373Z,7.80
2018-04-16T23:31:28.896Z,7.80
2018-04-16T23:33:56.412Z,7.80
2018-04-16T23:36:23.913Z,7.70
2018-04-16T23:38:51.453Z,7.70
2018-04-16T23:41:18.954Z,7.60
2018-04-16T23:43:46.483Z,7.60
2018-04-16T23:46:13.981Z,7.60
2018-04-16T23:48:41.501Z,7.60
2018-04-16T23:51:09.780Z,7.50
2018-04-16T23:53:37.302Z,7.50
2018-04-16T23:56:04.810Z,7.50
2018-04-16T23:58:32.324Z,7.40
